sensor_id;sensor_type;location;lat;lon;timestamp;P1;durP1;ratioP1;P2;durP2;ratioP2
69358;SDS011;56520;49.066;8.660;2022-09-12T00:00:42;6.30;;;2.33;;
69358;SDS011;56520;49.066;8.660;2022-09-12T00:03:07;6.32;;;2.60;;
69358;SDS011;56520;49.066;8.660;2022-09-12T00:05:33;5.10;;;1.92;;
69358;SDS011;56520;49.066;8.660;2022-09-12T00:07:59;4.90;;;2.08;;
69358;SDS011;56520;49.066;8.660;2022-09-12T00:10:25;6.50;;;2.22;;
69358;SDS011;56520;49.066;8.660;2022-09-12T00:12:50;5.20;;;1.90;;
69358;SDS011;56520;49.066;8.660;2022-09-12T00:15:16;6.30;;;2.35;;
69358;SDS011;56520;49.066;8.660;2022-09-12T00:17:42;5.63;;;2.22;;
69358;SDS011;56520;49.066;8.660;2022-09-12T00:20:09;5.80;;;2.53;;
69358;SDS011;56520;49.066;8.660;2022-09-12T00:22:35;5.63;;;2.60;;
69358;SDS011;56520;49.066;8.660;2022-09-12T00:25:00;5.35;;;2.25;;
69358;SDS011;56520;49.066;8.660;2022-09-12T00:27:26;5.63;;;2.58;;
69358;SDS011;56520;49.066;8.660;2022-09-12T00:29:52;6.60;;;2.70;;
69358;SDS011;56520;49.066;8.660;2022-09-12T00:32:18;5.13;;;2.30;;
69358;SDS011;56520;49.066;8.660;2022-09-12T00:34:44;5.15;;;1.75;;
69358;SDS011;56520;49.066;8.660;2022-09-12T00:37:10;5.80;;;2.45;;
69358;SDS011;56520;49.066;8.660;2022-09-12T00:39:35;5.90;;;2.20;;
69358;SDS011;56520;49.066;8.660;2022-09-12T00:42:01;5.25;;;2.05;;
69358;SDS011;56520;49.066;8.660;2022-09-12T00:46:53;4.97;;;2.20;;
69358;SDS011;56520;49.066;8.660;2022-09-12T00:49:52;5.68;;;2.30;;
69358;SDS011;56520;49.066;8.660;2022-09-12T00:52:30;5.90;;;2.17;;
69358;SDS011;56520;49.066;8.660;2022-09-12T00:55:17;5.47;;;1.95;;
69358;SDS011;56520;49.066;8.660;2022-09-12T01:00:45;5.40;;;1.95;;
69358;SDS011;56520;49.066;8.660;2022-09-12T01:03:11;4.60;;;1.80;;
69358;SDS011;56520;49.066;8.660;2022-09-12T01:05:40;4.25;;;1.67;;
69358;SDS011;56520;49.066;8.660;2022-09-12T01:08:11;4.95;;;2.00;;
69358;SDS011;56520;49.066;8.660;2022-09-12T01:10:37;5.10;;;2.25;;
69358;SDS011;56520;49.066;8.660;2022-09-12T01:13:06;5.72;;;1.98;;
69358;SDS011;56520;49.066;8.660;2022-09-12T01:15:33;5.03;;;1.90;;
69358;SDS011;56520;49.066;8.660;2022-09-12T01:31:39;6.00;;;2.10;;
69358;SDS011;56520;49.066;8.660;2022-09-12T01:45:17;5.90;;;2.45;;
69358;SDS011;56520;49.066;8.660;2022-09-12T01:50:46;6.40;;;2.25;;
69358;SDS011;56520;49.066;8.660;2022-09-12T01:53:24;5.63;;;1.75;;
69358;SDS011;56520;49.066;8.660;2022-09-12T01:55:55;4.93;;;1.77;;
69358;SDS011;56520;49.066;8.660;2022-09-12T01:58:33;5.95;;;1.90;;
69358;SDS011;56520;49.066;8.660;2022-09-12T02:01:12;5.40;;;1.83;;
69358;SDS011;56520;49.066;8.660;2022-09-12T02:03:43;5.45;;;2.22;;
69358;SDS011;56520;49.066;8.660;2022-09-12T02:06:16;7.07;;;2.13;;
69358;SDS011;56520;49.066;8.660;2022-09-12T02:08:52;5.55;;;2.20;;
69358;SDS011;56520;49.066;8.660;2022-09-12T02:11:20;5.40;;;1.88;;
69358;SDS011;56520;49.066;8.660;2022-09-12T02:13:51;5.63;;;2.33;;
69358;SDS011;56520;49.066;8.660;2022-09-12T02:16:22;5.43;;;2.08;;
69358;SDS011;56520;49.066;8.660;2022-09-12T02:18:54;5.15;;;2.00;;
69358;SDS011;56520;49.066;8.660;2022-09-12T02:21:23;5.65;;;2.38;;
69358;SDS011;56520;49.066;8.660;2022-09-12T02:23:53;5.18;;;1.90;;
69358;SDS011;56520;49.066;8.660;2022-09-12T02:26:24;4.75;;;1.88;;
69358;SDS011;56520;49.066;8.660;2022-09-12T02:29:05;5.03;;;1.90;;
69358;SDS011;56520;49.066;8.660;2022-09-12T02:31:46;5.38;;;2.15;;
69358;SDS011;56520;49.066;8.660;2022-09-12T02:39:56;5.20;;;1.73;;
69358;SDS011;56520;49.066;8.660;2022-09-12T02:42:23;4.97;;;1.77;;
69358;SDS011;56520;49.066;8.660;2022-09-12T02:44:50;4.93;;;2.05;;
69358;SDS011;56520;49.066;8.660;2022-09-12T02:47:35;5.45;;;2.15;;
69358;SDS011;56520;49.066;8.660;2022-09-12T02:50:07;4.93;;;2.20;;
69358;SDS011;56520;49.066;8.660;2022-09-12T02:52:34;5.47;;;2.40;;
69358;SDS011;56520;49.066;8.660;2022-09-12T02:55:00;6.18;;;2.28;;
69358;SDS011;56520;49.066;8.660;2022-09-12T02:57:29;6.47;;;2.30;;
69358;SDS011;56520;49.066;8.660;2022-09-12T02:59:56;5.78;;;2.13;;
69358;SDS011;56520;49.066;8.660;2022-09-12T03:05:05;5.95;;;2.55;;
69358;SDS011;56520;49.066;8.660;2022-09-12T03:07:42;5.35;;;1.90;;
69358;SDS011;56520;49.066;8.660;2022-09-12T03:21:47;5.10;;;1.80;;
69358;SDS011;56520;49.066;8.660;2022-09-12T03:24:33;5.38;;;2.10;;
69358;SDS011;56520;49.066;8.660;2022-09-12T03:27:13;5.65;;;2.10;;
69358;SDS011;56520;49.066;8.660;2022-09-12T03:30:09;5.40;;;2.13;;
69358;SDS011;56520;49.066;8.660;2022-09-12T03:32:39;5.35;;;2.10;;
69358;SDS011;56520;49.066;8.660;2022-09-12T03:35:12;5.97;;;2.22;;
69358;SDS011;56520;49.066;8.660;2022-09-12T03:37:39;5.45;;;2.15;;
69358;SDS011;56520;49.066;8.660;2022-09-12T03:40:05;4.72;;;1.80;;
69358;SDS011;56520;49.066;8.660;2022-09-12T03:42:31;5.95;;;1.70;;
69358;SDS011;56520;49.066;8.660;2022-09-12T03:44:57;5.20;;;1.90;;
69358;SDS011;56520;49.066;8.660;2022-09-12T03:47:22;5.18;;;1.77;;
69358;SDS011;56520;49.066;8.660;2022-09-12T03:49:48;5.25;;;1.98;;
69358;SDS011;56520;49.066;8.660;2022-09-12T03:52:13;4.72;;;1.85;;
69358;SDS011;56520;49.066;8.660;2022-09-12T03:54:39;4.72;;;1.70;;
69358;SDS011;56520;49.066;8.660;2022-09-12T03:57:04;4.90;;;1.77;;
69358;SDS011;56520;49.066;8.660;2022-09-12T03:59:30;5.70;;;2.30;;
69358;SDS011;56520;49.066;8.660;2022-09-12T04:01:56;5.50;;;1.90;;
69358;SDS011;56520;49.066;8.660;2022-09-12T04:04:21;4.90;;;1.73;;
69358;SDS011;56520;49.066;8.660;2022-09-12T04:06:47;5.43;;;1.80;;
69358;SDS011;56520;49.066;8.660;2022-09-12T04:09:12;5.63;;;1.80;;
69358;SDS011;56520;49.066;8.660;2022-09-12T04:11:38;4.57;;;1.73;;
69358;SDS011;56520;49.066;8.660;2022-09-12T04:14:03;5.00;;;2.00;;
69358;SDS011;56520;49.066;8.660;2022-09-12T04:16:29;5.72;;;2.55;;
69358;SDS011;56520;49.066;8.660;2022-09-12T04:18:54;5.53;;;2.10;;
69358;SDS011;56520;49.066;8.660;2022-09-12T04:21:20;5.68;;;1.83;;
69358;SDS011;56520;49.066;8.660;2022-09-12T04:23:46;5.15;;;1.95;;
69358;SDS011;56520;49.066;8.660;2022-09-12T04:26:12;4.97;;;1.73;;
69358;SDS011;56520;49.066;8.660;2022-09-12T04:28:39;5.07;;;2.00;;
69358;SDS011;56520;49.066;8.660;2022-09-12T04:31:06;6.68;;;2.58;;
69358;SDS011;56520;49.066;8.660;2022-09-12T04:33:37;5.80;;;2.30;;
69358;SDS011;56520;49.066;8.660;2022-09-12T04:36:07;5.40;;;2.13;;
69358;SDS011;56520;49.066;8.660;2022-09-12T04:38:34;6.00;;;2.33;;
69358;SDS011;56520;49.066;8.660;2022-09-12T04:41:00;5.85;;;2.33;;
69358;SDS011;56520;49.066;8.660;2022-09-12T04:43:36;6.30;;;2.40;;
69358;SDS011;56520;49.066;8.660;2022-09-12T04:46:08;6.00;;;2.08;;
69358;SDS011;56520;49.066;8.660;2022-09-12T04:48:35;6.70;;;1.90;;
69358;SDS011;56520;49.066;8.660;2022-09-12T04:51:10;5.60;;;2.08;;
69358;SDS011;56520;49.066;8.660;2022-09-12T04:53:47;5.53;;;2.00;;
69358;SDS011;56520;49.066;8.660;2022-09-12T04:56:13;6.00;;;2.30;;
69358;SDS011;56520;49.066;8.660;2022-09-12T04:58:39;5.45;;;2.17;;
69358;SDS011;56520;49.066;8.660;2022-09-12T05:01:08;5.32;;;2.00;;
69358;SDS011;56520;49.066;8.660;2022-09-12T05:03:36;5.78;;;2.00;;
69358;SDS011;56520;49.066;8.660;2022-09-12T05:06:07;6.93;;;2.72;;
69358;SDS011;56520;49.066;8.660;2022-09-12T05:08:34;5.40;;;1.88;;
69358;SDS011;56520;49.066;8.660;2022-09-12T05:11:03;5.35;;;2.05;;
69358;SDS011;56520;49.066;8.660;2022-09-12T05:13:31;5.60;;;2.40;;
69358;SDS011;56520;49.066;8.660;2022-09-12T05:15:57;6.38;;;2.20;;
69358;SDS011;56520;49.066;8.660;2022-09-12T05:18:24;6.00;;;2.05;;
69358;SDS011;56520;49.066;8.660;2022-09-12T05:20:50;5.18;;;2.08;;
69358;SDS011;56520;49.066;8.660;2022-09-12T05:23:19;5.82;;;2.08;;
69358;SDS011;56520;49.066;8.660;2022-09-12T05:25:52;6.50;;;2.15;;
69358;SDS011;56520;49.066;8.660;2022-09-12T05:28:18;5.68;;;2.00;;
69358;SDS011;56520;49.066;8.660;2022-09-12T05:30:45;5.53;;;1.73;;
69358;SDS011;56520;49.066;8.660;2022-09-12T05:33:11;5.05;;;1.90;;
69358;SDS011;56520;49.066;8.660;2022-09-12T05:35:36;5.80;;;2.40;;
69358;SDS011;56520;49.066;8.660;2022-09-12T05:38:03;6.35;;;2.42;;
69358;SDS011;56520;49.066;8.660;2022-09-12T05:40:30;6.53;;;2.30;;
69358;SDS011;56520;49.066;8.660;2022-09-12T05:42:55;6.43;;;2.53;;
69358;SDS011;56520;49.066;8.660;2022-09-12T05:45:21;6.22;;;2.33;;
69358;SDS011;56520;49.066;8.660;2022-09-12T05:47:47;4.85;;;1.70;;
69358;SDS011;56520;49.066;8.660;2022-09-12T05:50:12;6.25;;;2.30;;
69358;SDS011;56520;49.066;8.660;2022-09-12T05:52:38;5.38;;;2.08;;
69358;SDS011;56520;49.066;8.660;2022-09-12T05:55:04;5.00;;;1.90;;
69358;SDS011;56520;49.066;8.660;2022-09-12T05:57:30;6.15;;;2.50;;
69358;SDS011;56520;49.066;8.660;2022-09-12T05:59:55;6.00;;;2.45;;
69358;SDS011;56520;49.066;8.660;2022-09-12T06:02:21;6.43;;;2.15;;
69358;SDS011;56520;49.066;8.660;2022-09-12T06:04:46;6.03;;;2.08;;
69358;SDS011;56520;49.066;8.660;2022-09-12T06:07:11;5.10;;;1.90;;
69358;SDS011;56520;49.066;8.660;2022-09-12T06:09:37;5.85;;;2.00;;
69358;SDS011;56520;49.066;8.660;2022-09-12T06:12:02;5.40;;;2.10;;
69358;SDS011;56520;49.066;8.660;2022-09-12T06:14:29;6.38;;;2.50;;
69358;SDS011;56520;49.066;8.660;2022-09-12T06:16:54;4.15;;;1.42;;
69358;SDS011;56520;49.066;8.660;2022-09-12T06:19:21;4.93;;;1.80;;
69358;SDS011;56520;49.066;8.660;2022-09-12T06:21:51;5.80;;;2.00;;
69358;SDS011;56520;49.066;8.660;2022-09-12T06:24:17;7.78;;;2.45;;
69358;SDS011;56520;49.066;8.660;2022-09-12T06:26:44;6.53;;;2.65;;
69358;SDS011;56520;49.066;8.660;2022-09-12T06:29:10;6.22;;;2.47;;
69358;SDS011;56520;49.066;8.660;2022-09-12T06:31:36;7.57;;;2.80;;
69358;SDS011;56520;49.066;8.660;2022-09-12T06:34:03;5.93;;;2.38;;
69358;SDS011;56520;49.066;8.660;2022-09-12T06:36:32;6.05;;;2.28;;
69358;SDS011;56520;49.066;8.660;2022-09-12T06:39:02;6.97;;;2.50;;
69358;SDS011;56520;49.066;8.660;2022-09-12T06:41:30;6.60;;;2.95;;
69358;SDS011;56520;49.066;8.660;2022-09-12T06:43:56;6.53;;;2.90;;
69358;SDS011;56520;49.066;8.660;2022-09-12T06:46:22;6.43;;;2.33;;
69358;SDS011;56520;49.066;8.660;2022-09-12T06:48:49;7.35;;;3.40;;
69358;SDS011;56520;49.066;8.660;2022-09-12T06:51:15;7.35;;;3.25;;
69358;SDS011;56520;49.066;8.660;2022-09-12T06:53:42;8.38;;;3.40;;
69358;SDS011;56520;49.066;8.660;2022-09-12T06:56:10;12.02;;;5.40;;
69358;SDS011;56520;49.066;8.660;2022-09-12T06:58:38;9.35;;;4.50;;
69358;SDS011;56520;49.066;8.660;2022-09-12T07:01:05;9.35;;;4.75;;
69358;SDS011;56520;49.066;8.660;2022-09-12T07:03:35;10.73;;;5.78;;
69358;SDS011;56520;49.066;8.660;2022-09-12T07:06:08;9.32;;;4.47;;
69358;SDS011;56520;49.066;8.660;2022-09-12T07:08:35;10.55;;;4.65;;
69358;SDS011;56520;49.066;8.660;2022-09-12T07:11:35;8.63;;;4.00;;
69358;SDS011;56520;49.066;8.660;2022-09-12T07:13:56;8.98;;;4.45;;
69358;SDS011;56520;49.066;8.660;2022-09-12T07:16:23;10.05;;;4.20;;
69358;SDS011;56520;49.066;8.660;2022-09-12T07:18:49;8.98;;;4.25;;
69358;SDS011;56520;49.066;8.660;2022-09-12T07:21:19;7.93;;;3.60;;
69358;SDS011;56520;49.066;8.660;2022-09-12T07:23:45;10.88;;;4.68;;
69358;SDS011;56520;49.066;8.660;2022-09-12T07:26:11;10.00;;;4.55;;
69358;SDS011;56520;49.066;8.660;2022-09-12T07:28:38;8.93;;;4.05;;
69358;SDS011;56520;49.066;8.660;2022-09-12T07:31:08;9.43;;;4.10;;
69358;SDS011;56520;49.066;8.660;2022-09-12T07:33:34;10.40;;;4.57;;
69358;SDS011;56520;49.066;8.660;2022-09-12T07:36:04;8.02;;;3.70;;
69358;SDS011;56520;49.066;8.660;2022-09-12T07:38:32;7.78;;;3.70;;
69358;SDS011;56520;49.066;8.660;2022-09-12T07:40:58;9.18;;;4.80;;
69358;SDS011;56520;49.066;8.660;2022-09-12T07:43:24;9.57;;;4.40;;
69358;SDS011;56520;49.066;8.660;2022-09-12T07:45:53;8.07;;;4.25;;
69358;SDS011;56520;49.066;8.660;2022-09-12T07:48:20;7.53;;;3.35;;
69358;SDS011;56520;49.066;8.660;2022-09-12T07:50:45;6.70;;;3.00;;
69358;SDS011;56520;49.066;8.660;2022-09-12T07:53:11;6.40;;;3.25;;
69358;SDS011;56520;49.066;8.660;2022-09-12T07:55:36;5.80;;;2.70;;
69358;SDS011;56520;49.066;8.660;2022-09-12T07:58:02;6.03;;;2.40;;
69358;SDS011;56520;49.066;8.660;2022-09-12T08:00:28;8.13;;;2.97;;
69358;SDS011;56520;49.066;8.660;2022-09-12T08:02:59;6.18;;;2.97;;
69358;SDS011;56520;49.066;8.660;2022-09-12T08:05:27;8.70;;;3.03;;
69358;SDS011;56520;49.066;8.660;2022-09-12T08:07:53;7.05;;;3.08;;
69358;SDS011;56520;49.066;8.660;2022-09-12T08:10:19;6.65;;;3.03;;
69358;SDS011;56520;49.066;8.660;2022-09-12T08:12:44;7.13;;;2.80;;
69358;SDS011;56520;49.066;8.660;2022-09-12T08:15:09;6.72;;;2.85;;
69358;SDS011;56520;49.066;8.660;2022-09-12T08:17:35;6.85;;;2.83;;
69358;SDS011;56520;49.066;8.660;2022-09-12T08:20:00;6.10;;;2.63;;
69358;SDS011;56520;49.066;8.660;2022-09-12T08:22:28;5.65;;;2.50;;
69358;SDS011;56520;49.066;8.660;2022-09-12T08:24:55;6.07;;;2.92;;
69358;SDS011;56520;49.066;8.660;2022-09-12T08:27:20;6.40;;;2.55;;
69358;SDS011;56520;49.066;8.660;2022-09-12T08:29:46;7.10;;;3.13;;
69358;SDS011;56520;49.066;8.660;2022-09-12T08:32:11;6.15;;;2.58;;
69358;SDS011;56520;49.066;8.660;2022-09-12T08:34:36;6.35;;;2.72;;
69358;SDS011;56520;49.066;8.660;2022-09-12T08:37:02;6.88;;;2.75;;
69358;SDS011;56520;49.066;8.660;2022-09-12T08:39:28;6.05;;;2.47;;
69358;SDS011;56520;49.066;8.660;2022-09-12T08:41:56;5.90;;;2.20;;
69358;SDS011;56520;49.066;8.660;2022-09-12T08:52:41;5.70;;;2.50;;
69358;SDS011;56520;49.066;8.660;2022-09-12T08:55:42;4.63;;;1.90;;
69358;SDS011;56520;49.066;8.660;2022-09-12T09:14:25;4.65;;;1.75;;
69358;SDS011;56520;49.066;8.660;2022-09-12T09:17:20;4.70;;;1.85;;
69358;SDS011;56520;49.066;8.660;2022-09-12T09:25:16;4.88;;;2.00;;
69358;SDS011;56520;49.066;8.660;2022-09-12T09:27:52;4.95;;;1.90;;
69358;SDS011;56520;49.066;8.660;2022-09-12T09:30:24;4.13;;;1.65;;
69358;SDS011;56520;49.066;8.660;2022-09-12T09:32:54;4.65;;;1.80;;
69358;SDS011;56520;49.066;8.660;2022-09-12T09:35:43;4.95;;;1.65;;
69358;SDS011;56520;49.066;8.660;2022-09-12T09:44:01;4.22;;;1.70;;
69358;SDS011;56520;49.066;8.660;2022-09-12T09:46:27;4.85;;;1.70;;
69358;SDS011;56520;49.066;8.660;2022-09-12T09:48:53;4.50;;;1.67;;
69358;SDS011;56520;49.066;8.660;2022-09-12T09:51:25;3.83;;;1.50;;
69358;SDS011;56520;49.066;8.660;2022-09-12T09:56:46;3.92;;;1.60;;
69358;SDS011;56520;49.066;8.660;2022-09-12T09:59:17;3.63;;;1.42;;
69358;SDS011;56520;49.066;8.660;2022-09-12T10:01:57;3.97;;;1.63;;
69358;SDS011;56520;49.066;8.660;2022-09-12T10:04:39;4.10;;;1.80;;
69358;SDS011;56520;49.066;8.660;2022-09-12T10:07:06;4.60;;;1.67;;
69358;SDS011;56520;49.066;8.660;2022-09-12T10:09:45;3.90;;;1.40;;
69358;SDS011;56520;49.066;8.660;2022-09-12T10:12:29;3.65;;;1.50;;
69358;SDS011;56520;49.066;8.660;2022-09-12T10:14:58;5.13;;;1.58;;
69358;SDS011;56520;49.066;8.660;2022-09-12T10:17:38;4.88;;;1.75;;
69358;SDS011;56520;49.066;8.660;2022-09-12T10:25:52;5.93;;;1.63;;
69358;SDS011;56520;49.066;8.660;2022-09-12T10:28:22;3.92;;;1.48;;
69358;SDS011;56520;49.066;8.660;2022-09-12T10:30:53;4.07;;;1.63;;
69358;SDS011;56520;49.066;8.660;2022-09-12T10:33:20;3.65;;;1.52;;
69358;SDS011;56520;49.066;8.660;2022-09-12T10:35:49;4.13;;;1.50;;
69358;SDS011;56520;49.066;8.660;2022-09-12T10:38:22;3.10;;;1.20;;
69358;SDS011;56520;49.066;8.660;2022-09-12T10:41:04;4.20;;;1.50;;
69358;SDS011;56520;49.066;8.660;2022-09-12T10:45:58;4.55;;;1.70;;
69358;SDS011;56520;49.066;8.660;2022-09-12T10:48:39;4.00;;;1.45;;
69358;SDS011;56520;49.066;8.660;2022-09-12T10:51:11;4.65;;;1.55;;
69358;SDS011;56520;49.066;8.660;2022-09-12T10:53:48;3.90;;;1.40;;
69358;SDS011;56520;49.066;8.660;2022-09-12T10:56:18;4.10;;;1.50;;
69358;SDS011;56520;49.066;8.660;2022-09-12T11:06:52;4.80;;;1.50;;
69358;SDS011;56520;49.066;8.660;2022-09-12T11:09:40;5.00;;;1.50;;
69358;SDS011;56520;49.066;8.660;2022-09-12T11:12:24;3.17;;;1.30;;
69358;SDS011;56520;49.066;8.660;2022-09-12T11:34:34;4.28;;;1.50;;
69358;SDS011;56520;49.066;8.660;2022-09-12T11:39:55;2.90;;;1.02;;
69358;SDS011;56520;49.066;8.660;2022-09-12T11:42:25;3.42;;;1.10;;
69358;SDS011;56520;49.066;8.660;2022-09-12T11:45:01;3.17;;;1.20;;
69358;SDS011;56520;49.066;8.660;2022-09-12T11:47:32;4.35;;;1.50;;
69358;SDS011;56520;49.066;8.660;2022-09-12T11:50:00;5.40;;;1.40;;
69358;SDS011;56520;49.066;8.660;2022-09-12T11:52:32;3.30;;;1.10;;
69358;SDS011;56520;49.066;8.660;2022-09-12T11:55:06;3.03;;;1.20;;
69358;SDS011;56520;49.066;8.660;2022-09-12T11:57:43;2.75;;;1.10;;
69358;SDS011;56520;49.066;8.660;2022-09-12T12:00:17;4.00;;;1.10;;
69358;SDS011;56520;49.066;8.660;2022-09-12T12:05:43;3.22;;;1.17;;
69358;SDS011;56520;49.066;8.660;2022-09-12T12:08:20;3.28;;;1.10;;
69358;SDS011;56520;49.066;8.660;2022-09-12T12:10:56;2.83;;;1.20;;
69358;SDS011;56520;49.066;8.660;2022-09-12T12:16:48;3.58;;;1.10;;
69358;SDS011;56520;49.066;8.660;2022-09-12T12:21:39;4.20;;;1.20;;
69358;SDS011;56520;49.066;8.660;2022-09-12T12:34:41;4.55;;;1.30;;
69358;SDS011;56520;49.066;8.660;2022-09-12T12:47:43;3.10;;;1.30;;
69358;SDS011;56520;49.066;8.660;2022-09-12T12:52:43;2.97;;;1.10;;
69358;SDS011;56520;49.066;8.660;2022-09-12T12:57:48;3.45;;;1.13;;
69358;SDS011;56520;49.066;8.660;2022-09-12T13:05:41;2.70;;;1.10;;
69358;SDS011;56520;49.066;8.660;2022-09-12T13:10:56;3.08;;;1.00;;
69358;SDS011;56520;49.066;8.660;2022-09-12T13:13:31;3.42;;;1.20;;
69358;SDS011;56520;49.066;8.660;2022-09-12T13:16:02;5.10;;;1.10;;
69358;SDS011;56520;49.066;8.660;2022-09-12T13:18:29;4.05;;;1.23;;
69358;SDS011;56520;49.066;8.660;2022-09-12T13:21:00;4.18;;;1.20;;
69358;SDS011;56520;49.066;8.660;2022-09-12T13:23:38;3.90;;;1.20;;
69358;SDS011;56520;49.066;8.660;2022-09-12T13:26:20;2.90;;;1.17;;
69358;SDS011;56520;49.066;8.660;2022-09-12T13:28:47;2.95;;;1.10;;
69358;SDS011;56520;49.066;8.660;2022-09-12T13:31:19;3.00;;;1.08;;
69358;SDS011;56520;49.066;8.660;2022-09-12T13:33:49;3.22;;;1.20;;
69358;SDS011;56520;49.066;8.660;2022-09-12T13:41:38;2.88;;;1.00;;
69358;SDS011;56520;49.066;8.660;2022-09-12T13:44:24;3.03;;;1.10;;
69358;SDS011;56520;49.066;8.660;2022-09-12T13:46:51;3.05;;;1.15;;
69358;SDS011;56520;49.066;8.660;2022-09-12T13:49:21;3.40;;;1.20;;
69358;SDS011;56520;49.066;8.660;2022-09-12T13:52:03;2.20;;;0.90;;
69358;SDS011;56520;49.066;8.660;2022-09-12T13:54:38;2.63;;;1.08;;
69358;SDS011;56520;49.066;8.660;2022-09-12T13:57:04;2.92;;;1.02;;
69358;SDS011;56520;49.066;8.660;2022-09-12T13:59:39;2.50;;;1.00;;
69358;SDS011;56520;49.066;8.660;2022-09-12T14:02:19;2.92;;;1.10;;
69358;SDS011;56520;49.066;8.660;2022-09-12T14:04:47;4.15;;;1.10;;
69358;SDS011;56520;49.066;8.660;2022-09-12T14:07:32;2.67;;;1.42;;
69358;SDS011;56520;49.066;8.660;2022-09-12T14:09:59;3.25;;;0.90;;
69358;SDS011;56520;49.066;8.660;2022-09-12T14:14:54;2.42;;;0.95;;
69358;SDS011;56520;49.066;8.660;2022-09-12T14:17:27;2.83;;;1.00;;
69358;SDS011;56520;49.066;8.660;2022-09-12T14:19:58;2.17;;;0.82;;
69358;SDS011;56520;49.066;8.660;2022-09-12T14:22:27;2.00;;;0.90;;
69358;SDS011;56520;49.066;8.660;2022-09-12T14:24:54;2.58;;;1.10;;
69358;SDS011;56520;49.066;8.660;2022-09-12T14:27:24;2.72;;;1.02;;
69358;SDS011;56520;49.066;8.660;2022-09-12T14:30:04;3.47;;;1.00;;
69358;SDS011;56520;49.066;8.660;2022-09-12T14:32:33;1.95;;;0.90;;
69358;SDS011;56520;49.066;8.660;2022-09-12T14:37:37;2.78;;;1.00;;
69358;SDS011;56520;49.066;8.660;2022-09-12T14:40:11;2.80;;;1.10;;
69358;SDS011;56520;49.066;8.660;2022-09-12T14:42:41;4.85;;;1.13;;
69358;SDS011;56520;49.066;8.660;2022-09-12T14:45:14;1.80;;;0.90;;
69358;SDS011;56520;49.066;8.660;2022-09-12T14:47:42;2.17;;;0.98;;
69358;SDS011;56520;49.066;8.660;2022-09-12T14:50:33;2.38;;;1.00;;
69358;SDS011;56520;49.066;8.660;2022-09-12T14:55:31;2.05;;;0.90;;
69358;SDS011;56520;49.066;8.660;2022-09-12T15:03:37;2.13;;;0.95;;
69358;SDS011;56520;49.066;8.660;2022-09-12T15:09:02;3.35;;;1.20;;
69358;SDS011;56520;49.066;8.660;2022-09-12T15:11:30;2.72;;;1.23;;
69358;SDS011;56520;49.066;8.660;2022-09-12T15:13:57;2.03;;;0.90;;
69358;SDS011;56520;49.066;8.660;2022-09-12T15:16:23;2.42;;;1.08;;
69358;SDS011;56520;49.066;8.660;2022-09-12T15:18:48;2.47;;;1.08;;
69358;SDS011;56520;49.066;8.660;2022-09-12T15:21:17;2.85;;;1.00;;
69358;SDS011;56520;49.066;8.660;2022-09-12T15:23:45;2.60;;;0.93;;
69358;SDS011;56520;49.066;8.660;2022-09-12T15:26:11;2.83;;;1.00;;
69358;SDS011;56520;49.066;8.660;2022-09-12T15:28:41;1.80;;;0.90;;
69358;SDS011;56520;49.066;8.660;2022-09-12T15:31:11;2.55;;;0.90;;
69358;SDS011;56520;49.066;8.660;2022-09-12T15:33:40;2.15;;;1.00;;
69358;SDS011;56520;49.066;8.660;2022-09-12T15:36:16;2.50;;;0.82;;
69358;SDS011;56520;49.066;8.660;2022-09-12T15:43:45;2.72;;;1.00;;
69358;SDS011;56520;49.066;8.660;2022-09-12T15:46:12;2.00;;;0.88;;
69358;SDS011;56520;49.066;8.660;2022-09-12T15:48:38;2.80;;;1.02;;
69358;SDS011;56520;49.066;8.660;2022-09-12T15:51:05;2.63;;;1.00;;
69358;SDS011;56520;49.066;8.660;2022-09-12T15:53:50;2.30;;;0.90;;
69358;SDS011;56520;49.066;8.660;2022-09-12T15:56:17;2.97;;;1.08;;
69358;SDS011;56520;49.066;8.660;2022-09-12T15:58:43;3.50;;;1.10;;
69358;SDS011;56520;49.066;8.660;2022-09-12T16:01:13;3.05;;;1.10;;
69358;SDS011;56520;49.066;8.660;2022-09-12T16:03:39;3.33;;;1.00;;
69358;SDS011;56520;49.066;8.660;2022-09-12T16:06:05;2.05;;;0.93;;
69358;SDS011;56520;49.066;8.660;2022-09-12T16:08:33;1.92;;;1.00;;
69358;SDS011;56520;49.066;8.660;2022-09-12T16:11:00;2.97;;;1.02;;
69358;SDS011;56520;49.066;8.660;2022-09-12T16:13:28;3.63;;;1.20;;
69358;SDS011;56520;49.066;8.660;2022-09-12T16:15:57;1.55;;;0.90;;
69358;SDS011;56520;49.066;8.660;2022-09-12T16:18:23;2.05;;;1.00;;
69358;SDS011;56520;49.066;8.660;2022-09-12T16:20:53;2.90;;;1.13;;
69358;SDS011;56520;49.066;8.660;2022-09-12T16:23:19;3.20;;;1.10;;
69358;SDS011;56520;49.066;8.660;2022-09-12T16:25:45;2.00;;;0.80;;
69358;SDS011;56520;49.066;8.660;2022-09-12T16:28:10;3.30;;;1.00;;
69358;SDS011;56520;49.066;8.660;2022-09-12T16:30:35;2.20;;;0.98;;
69358;SDS011;56520;49.066;8.660;2022-09-12T16:33:01;2.42;;;1.00;;
69358;SDS011;56520;49.066;8.660;2022-09-12T16:35:27;2.28;;;0.93;;
69358;SDS011;56520;49.066;8.660;2022-09-12T16:37:52;2.80;;;1.00;;
69358;SDS011;56520;49.066;8.660;2022-09-12T16:40:18;3.63;;;1.27;;
69358;SDS011;56520;49.066;8.660;2022-09-12T16:42:45;1.52;;;0.80;;
69358;SDS011;56520;49.066;8.660;2022-09-12T16:45:11;2.55;;;0.90;;
69358;SDS011;56520;49.066;8.660;2022-09-12T16:47:36;2.28;;;0.93;;
69358;SDS011;56520;49.066;8.660;2022-09-12T16:50:02;2.92;;;1.10;;
69358;SDS011;56520;49.066;8.660;2022-09-12T16:52:28;3.72;;;1.02;;
69358;SDS011;56520;49.066;8.660;2022-09-12T16:54:55;1.95;;;0.88;;
69358;SDS011;56520;49.066;8.660;2022-09-12T16:57:21;2.30;;;1.00;;
69358;SDS011;56520;49.066;8.660;2022-09-12T16:59:47;2.53;;;0.90;;
69358;SDS011;56520;49.066;8.660;2022-09-12T17:02:12;1.65;;;0.90;;
69358;SDS011;56520;49.066;8.660;2022-09-12T17:04:38;2.50;;;1.00;;
69358;SDS011;56520;49.066;8.660;2022-09-12T17:07:04;3.13;;;1.10;;
69358;SDS011;56520;49.066;8.660;2022-09-12T17:09:30;2.83;;;1.23;;
69358;SDS011;56520;49.066;8.660;2022-09-12T17:11:56;2.03;;;0.90;;
69358;SDS011;56520;49.066;8.660;2022-09-12T17:14:22;2.78;;;1.10;;
69358;SDS011;56520;49.066;8.660;2022-09-12T17:16:47;3.33;;;1.02;;
69358;SDS011;56520;49.066;8.660;2022-09-12T17:19:14;2.95;;;1.10;;
69358;SDS011;56520;49.066;8.660;2022-09-12T17:21:50;4.03;;;1.10;;
69358;SDS011;56520;49.066;8.660;2022-09-12T17:24:16;2.88;;;1.20;;
69358;SDS011;56520;49.066;8.660;2022-09-12T17:26:42;2.65;;;1.05;;
69358;SDS011;56520;49.066;8.660;2022-09-12T17:29:09;2.65;;;1.00;;
69358;SDS011;56520;49.066;8.660;2022-09-12T17:31:36;3.03;;;1.10;;
69358;SDS011;56520;49.066;8.660;2022-09-12T17:34:01;2.70;;;1.00;;
69358;SDS011;56520;49.066;8.660;2022-09-12T17:36:27;2.60;;;1.00;;
69358;SDS011;56520;49.066;8.660;2022-09-12T17:38:55;4.95;;;1.30;;
69358;SDS011;56520;49.066;8.660;2022-09-12T17:41:22;2.03;;;0.93;;
69358;SDS011;56520;49.066;8.660;2022-09-12T17:43:50;3.80;;;1.20;;
69358;SDS011;56520;49.066;8.660;2022-09-12T17:46:22;2.58;;;1.02;;
69358;SDS011;56520;49.066;8.660;2022-09-12T17:48:49;3.67;;;1.10;;
69358;SDS011;56520;49.066;8.660;2022-09-12T17:51:16;3.58;;;1.23;;
69358;SDS011;56520;49.066;8.660;2022-09-12T17:53:42;3.33;;;1.30;;
69358;SDS011;56520;49.066;8.660;2022-09-12T17:56:08;2.45;;;1.00;;
69358;SDS011;56520;49.066;8.660;2022-09-12T17:58:34;2.47;;;1.00;;
69358;SDS011;56520;49.066;8.660;2022-09-12T18:01:09;3.90;;;1.30;;
69358;SDS011;56520;49.066;8.660;2022-09-12T18:03:55;2.90;;;1.00;;
69358;SDS011;56520;49.066;8.660;2022-09-12T18:06:22;2.03;;;1.00;;
69358;SDS011;56520;49.066;8.660;2022-09-12T18:08:48;2.60;;;1.08;;
69358;SDS011;56520;49.066;8.660;2022-09-12T18:11:14;2.63;;;1.08;;
69358;SDS011;56520;49.066;8.660;2022-09-12T18:13:40;3.03;;;1.10;;
69358;SDS011;56520;49.066;8.660;2022-09-12T18:16:06;2.95;;;1.00;;
69358;SDS011;56520;49.066;8.660;2022-09-12T18:18:34;2.70;;;1.13;;
69358;SDS011;56520;49.066;8.660;2022-09-12T18:21:00;3.30;;;1.20;;